Time;durP1;ratioP1;P1;durP2;ratioP2;P2;SDS_P1;SDS_P2;PMS_P1;PMS_P2;Temp;Humidity;BMP_temperature;BMP_pressure;BME280_temperature;BME280_humidity;BME280_pressure;Samples;Min_cycle;Max_cycle;Signal;HPM_P1;HPM_P2
2023/03/18 00:02:06;;;;;;;0.95;0.95;;;11.10;99.90;;;;;;4939022;28;20047;-81
2023/03/18 00:04:32;;;;;;;0.95;0.90;;;11.20;99.90;;;;;;4952164;28;20050;-82
2023/03/18 00:06:58;;;;;;;0.70;0.70;;;11.10;99.90;;;;;;4962446;28;20039;-82
2023/03/18 00:09:24;;;;;;;2.30;1.13;;;11.10;99.90;;;;;;4961457;28;20071;-81
2023/03/18 00:11:51;;;;;;;0.88;0.88;;;11.10;99.90;;;;;;4964073;28;20503;-82
2023/03/18 00:14:18;;;;;;;;;;;11.10;99.90;;;;;;4961869;28;20485;-81
2023/03/18 00:16:43;;;;;;;;;;;11.10;99.90;;;;;;4965002;28;19929;-81
2023/03/18 00:19:09;;;;;;;0.90;0.90;;;11.10;99.90;;;;;;4954674;28;20411;-82
2023/03/18 00:21:34;;;;;;;0.70;0.70;;;11.10;99.90;;;;;;4977520;28;20108;-82
2023/03/18 00:24:00;;;;;;;2.33;1.15;;;11.10;99.90;;;;;;4964713;28;20043;-81
2023/03/18 00:26:27;;;;;;;3.70;0.88;;;11.10;99.90;;;;;;4973406;28;20038;-82
2023/03/18 00:28:57;;;;;;;1.30;1.23;;;11.10;99.90;;;;;;4970743;28;20500;-83
2023/03/18 00:31:24;;;;;;;1.02;1.00;;;11.10;99.90;;;;;;4965001;28;20085;-82
2023/03/18 00:33:50;;;;;;;1.15;1.05;;;11.20;99.90;;;;;;4957466;28;20054;-82
2023/03/18 00:36:17;;;;;;;0.50;0.32;;;11.20;99.90;;;;;;4945127;28;20404;-81
2023/03/18 00:38:44;;;;;;;0.80;0.73;;;11.20;99.90;;;;;;4961586;28;20058;-82
2023/03/18 00:41:11;;;;;;;1.10;1.00;;;11.20;99.90;;;;;;4962677;28;20448;-83
2023/03/18 00:43:45;;;;;;;0.55;0.55;;;11.20;99.90;;;;;;4956869;28;20358;-83
2023/03/18 00:46:21;;;;;;;1.38;1.35;;;11.10;99.90;;;;;;4945787;28;20262;-82
2023/03/18 00:48:47;;;;;;;2.92;2.15;;;11.10;99.90;;;;;;4941506;28;20039;-82
2023/03/18 00:51:15;;;;;;;0.38;0.38;;;11.10;99.90;;;;;;4937846;28;20047;-82
2023/03/18 00:53:47;;;;;;;1.90;1.80;;;11.00;99.90;;;;;;4940827;28;20105;-82
2023/03/18 00:56:14;;;;;;;0.85;0.85;;;11.00;99.90;;;;;;4946445;28;20057;-82
2023/03/18 00:58:40;;;;;;;0.95;0.70;;;11.00;99.90;;;;;;4953616;28;20147;-82
2023/03/18 01:01:07;;;;;;;;;;;10.90;99.90;;;;;;4963500;28;20054;-83
2023/03/18 01:03:33;;;;;;;0.75;0.60;;;10.90;99.90;;;;;;4963004;28;19918;-82
2023/03/18 01:06:03;;;;;;;1.15;0.70;;;10.80;99.90;;;;;;4962110;28;20051;-82
2023/03/18 01:08:29;;;;;;;3.05;1.42;;;10.80;99.90;;;;;;4960263;28;20110;-83
2023/03/18 01:10:56;;;;;;;1.02;1.02;;;10.80;99.90;;;;;;4960556;28;20059;-82
2023/03/18 01:13:22;;;;;;;1.25;1.15;;;10.80;99.90;;;;;;4960860;28;20057;-82
2023/03/18 01:15:50;;;;;;;0.40;0.40;;;10.70;99.90;;;;;;4957261;28;20055;-82
2023/03/18 01:18:16;;;;;;;1.00;1.00;;;10.70;99.90;;;;;;4961533;28;20104;-83
2023/03/18 01:20:43;;;;;;;1.40;1.33;;;10.70;99.90;;;;;;4970211;28;20051;-83
2023/03/18 01:23:09;;;;;;;1.70;1.60;;;10.70;99.90;;;;;;4945148;28;20125;-83
2023/03/18 01:25:36;;;;;;;0.90;0.90;;;10.70;99.90;;;;;;4962291;28;20050;-83
2023/03/18 01:28:02;;;;;;;1.13;1.13;;;10.60;99.90;;;;;;4958270;28;20035;-81
2023/03/18 01:30:29;;;;;;;0.68;0.68;;;10.70;99.90;;;;;;4966517;28;20245;-83
2023/03/18 01:32:55;;;;;;;0.57;0.57;;;10.60;99.90;;;;;;4960121;28;20092;-81
2023/03/18 01:35:23;;;;;;;3.15;1.80;;;10.50;99.90;;;;;;4961443;28;20133;-83
2023/03/18 01:37:49;;;;;;;2.53;1.30;;;10.50;99.90;;;;;;4959622;28;20053;-82
2023/03/18 01:40:15;;;;;;;0.70;0.70;;;10.40;99.90;;;;;;4953029;28;20039;-81
2023/03/18 01:42:42;;;;;;;1.85;1.75;;;10.40;99.90;;;;;;4958951;28;20076;-81
2023/03/18 01:45:30;;;;;;;0.85;0.85;;;10.40;99.90;;;;;;4957250;28;20139;-81
2023/03/18 01:47:57;;;;;;;1.38;1.33;;;10.30;99.90;;;;;;4967188;28;20719;-81
2023/03/18 01:50:30;;;;;;;0.52;0.52;;;10.30;99.90;;;;;;4960025;28;20129;-81
2023/03/18 01:53:17;;;;;;;1.55;1.45;;;10.20;99.90;;;;;;4958176;28;20093;-81
2023/03/18 01:55:44;;;;;;;1.77;1.67;;;10.10;99.90;;;;;;4960542;28;20050;-81
2023/03/18 01:58:17;;;;;;;0.55;0.55;;;10.10;99.90;;;;;;4957073;28;20043;-82
2023/03/18 02:00:50;;;;;;;0.70;0.70;;;10.10;99.90;;;;;;4956396;28;20488;-82
2023/03/18 02:03:18;;;;;;;1.85;1.52;;;10.10;99.90;;;;;;4961963;28;20047;-82
2023/03/18 02:05:45;;;;;;;1.67;0.75;;;10.10;99.90;;;;;;4961445;28;20082;-81
2023/03/18 02:08:11;;;;;;;1.30;1.20;;;10.10;99.90;;;;;;4960584;28;20127;-81
2023/03/18 02:10:37;;;;;;;3.55;2.70;;;10.10;99.90;;;;;;4959394;28;20492;-81
2023/03/18 02:13:05;;;;;;;;;;;10.10;99.90;;;;;;4960475;28;20043;-81
2023/03/18 02:15:32;;;;;;;2.00;1.90;;;10.20;99.90;;;;;;4962675;28;20020;-81
2023/03/18 02:18:32;;;;;;;0.85;0.85;;;10.20;99.90;;;;;;4940996;28;20058;-82
2023/03/18 02:21:23;;;;;;;1.13;1.13;;;10.10;99.90;;;;;;4970435;28;20383;-82
2023/03/18 02:24:18;;;;;;;2.22;1.45;;;10.10;99.90;;;;;;4960422;28;20377;-82
2023/03/18 02:27:05;;;;;;;4.00;1.63;;;10.10;99.90;;;;;;4959336;28;20092;-82
2023/03/18 02:29:34;;;;;;;1.13;1.03;;;10.00;99.90;;;;;;4966978;28;20575;-82
2023/03/18 02:32:02;;;;;;;1.27;1.23;;;10.00;99.90;;;;;;4967451;28;20067;-83
2023/03/18 02:34:29;;;;;;;3.10;2.92;;;10.00;99.90;;;;;;4958007;28;20132;-83
2023/03/18 02:36:56;;;;;;;3.28;2.05;;;10.00;99.90;;;;;;4943994;28;20050;-81
2023/03/18 02:39:22;;;;;;;1.58;1.23;;;10.00;99.90;;;;;;4958242;28;20498;-82
2023/03/18 02:41:47;;;;;;;1.65;1.55;;;10.00;99.90;;;;;;4959955;28;20082;-82
2023/03/18 02:44:13;;;;;;;1.05;0.82;;;9.90;99.90;;;;;;4951133;28;20085;-81
2023/03/18 02:46:54;;;;;;;2.15;1.90;;;9.90;99.90;;;;;;4962999;28;20030;-82
2023/03/18 02:49:22;;;;;;;1.80;1.70;;;9.80;99.90;;;;;;4963182;28;20051;-81
2023/03/18 02:51:49;;;;;;;1.40;1.30;;;9.70;99.90;;;;;;4948420;28;20054;-82
2023/03/18 02:54:22;;;;;;;0.50;0.50;;;9.70;99.90;;;;;;4959644;28;20046;-81
2023/03/18 02:56:49;;;;;;;2.13;2.00;;;9.70;99.90;;;;;;4962944;28;20046;-82
2023/03/18 02:59:15;;;;;;;1.70;1.60;;;9.60;99.90;;;;;;4944270;28;22182;-82
2023/03/18 03:01:41;;;;;;;;;;;9.60;99.90;;;;;;4960058;28;20050;-82
2023/03/18 03:04:08;;;;;;;2.88;1.02;;;9.50;99.90;;;;;;4965757;28;19918;-82
2023/03/18 03:06:34;;;;;;;1.73;1.27;;;9.40;99.90;;;;;;4962365;28;20038;-82
2023/03/18 03:09:02;;;;;;;4.05;2.03;;;9.50;99.90;;;;;;4948816;28;20042;-82
2023/03/18 03:11:28;;;;;;;1.70;1.60;;;9.30;99.90;;;;;;4966765;28;20043;-82
2023/03/18 03:13:54;;;;;;;2.08;1.98;;;9.30;99.90;;;;;;4932749;28;20050;-83
2023/03/18 03:16:20;;;;;;;5.70;2.58;;;9.20;99.90;;;;;;4933035;28;20055;-81
2023/03/18 03:18:46;;;;;;;1.88;1.58;;;9.20;99.90;;;;;;4961374;28;20062;-81
2023/03/18 03:21:13;;;;;;;1.42;1.13;;;9.20;99.90;;;;;;4969468;28;20042;-81
2023/03/18 03:23:40;;;;;;;4.60;1.83;;;9.10;99.90;;;;;;4982211;28;20046;-81
2023/03/18 03:26:06;;;;;;;2.33;2.08;;;9.20;99.90;;;;;;4962339;28;20046;-82
2023/03/18 03:28:32;;;;;;;2.25;2.13;;;9.20;99.90;;;;;;4973948;28;20051;-82
2023/03/18 03:30:58;;;;;;;0.88;0.88;;;9.20;99.90;;;;;;4965521;28;20664;-83
2023/03/18 03:33:25;;;;;;;0.45;0.45;;;9.20;99.90;;;;;;4961821;28;20361;-82
2023/03/18 03:35:51;;;;;;;1.45;1.35;;;9.20;99.90;;;;;;4946619;28;20046;-83
2023/03/18 03:38:17;;;;;;;;;;;9.10;99.90;;;;;;4963261;28;20050;-82
2023/03/18 03:40:43;;;;;;;2.08;1.95;;;9.20;99.90;;;;;;4978147;28;20299;-82
2023/03/18 03:43:13;;;;;;;2.08;1.80;;;9.10;99.90;;;;;;4949796;28;20062;-82
2023/03/18 03:45:41;;;;;;;3.30;2.40;;;9.10;99.90;;;;;;4958982;28;20054;-82
2023/03/18 03:48:07;;;;;;;1.40;1.30;;;9.10;99.90;;;;;;4958819;28;20039;-82
2023/03/18 03:50:33;;;;;;;1.65;1.55;;;9.10;99.90;;;;;;4962879;28;20039;-82
2023/03/18 03:52:59;;;;;;;1.08;1.05;;;9.10;99.90;;;;;;4963722;28;20058;-82
2023/03/18 03:55:25;;;;;;;1.20;1.15;;;9.00;99.90;;;;;;4963669;28;20088;-82
2023/03/18 03:57:51;;;;;;;;;;;9.00;99.90;;;;;;4963775;28;20445;-82
2023/03/18 04:00:20;;;;;;;1.02;1.02;;;9.00;99.90;;;;;;4962537;28;19922;-82
2023/03/18 04:02:47;;;;;;;0.70;0.70;;;9.00;99.90;;;;;;4958657;28;20042;-82
2023/03/18 04:05:16;;;;;;;2.25;2.08;;;8.90;99.90;;;;;;4962135;28;20050;-82
2023/03/18 04:07:43;;;;;;;3.20;1.50;;;8.90;99.90;;;;;;4950469;28;20088;-82
2023/03/18 04:10:12;;;;;;;0.90;0.90;;;8.90;99.90;;;;;;4945234;28;20055;-82
2023/03/18 04:12:38;;;;;;;1.90;1.67;;;9.00;99.90;;;;;;4963474;28;20058;-82
2023/03/18 04:15:06;;;;;;;2.13;1.98;;;8.90;99.90;;;;;;4960107;28;20043;-83
2023/03/18 04:17:33;;;;;;;0.88;0.88;;;8.90;99.90;;;;;;4957602;28;20137;-83
2023/03/18 04:19:59;;;;;;;2.50;2.38;;;8.90;99.90;;;;;;4943004;28;20043;-82
2023/03/18 04:22:25;;;;;;;0.50;0.50;;;8.90;99.90;;;;;;4962108;28;20050;-82
2023/03/18 04:24:51;;;;;;;0.68;0.68;;;8.90;99.90;;;;;;4944973;28;20128;-82
2023/03/18 04:27:17;;;;;;;;;;;8.90;99.90;;;;;;4942200;28;20049;-82
2023/03/18 04:29:43;;;;;;;0.93;0.93;;;8.80;99.90;;;;;;4966916;28;19922;-82
2023/03/18 04:32:10;;;;;;;0.88;0.88;;;8.90;99.90;;;;;;4946095;28;20051;-82
2023/03/18 04:34:35;;;;;;;0.60;0.60;;;8.80;99.90;;;;;;4959787;28;20125;-83
2023/03/18 04:37:02;;;;;;;1.20;1.15;;;8.80;99.90;;;;;;4959968;28;20461;-82
2023/03/18 04:39:28;;;;;;;2.00;1.85;;;8.80;99.90;;;;;;4929913;28;20047;-82
2023/03/18 04:41:55;;;;;;;3.03;2.42;;;8.80;99.90;;;;;;4954312;28;20054;-82
2023/03/18 04:44:23;;;;;;;1.38;1.27;;;8.80;99.90;;;;;;4960595;28;20043;-80
2023/03/18 04:46:49;;;;;;;1.33;1.33;;;8.80;99.90;;;;;;4946380;28;20182;-81
2023/03/18 04:49:15;;;;;;;1.33;1.23;;;8.80;99.90;;;;;;4962158;28;20092;-81
2023/03/18 04:51:41;;;;;;;0.85;0.85;;;8.90;99.90;;;;;;4960113;28;20498;-82
2023/03/18 04:54:07;;;;;;;1.05;1.05;;;8.80;99.90;;;;;;4931551;28;20054;-81
2023/03/18 04:56:33;;;;;;;;;;;8.80;99.90;;;;;;4966625;28;20046;-81
2023/03/18 04:58:59;;;;;;;0.93;0.93;;;8.80;99.90;;;;;;4962284;28;19926;-82
2023/03/18 05:01:25;;;;;;;1.38;1.27;;;8.80;99.90;;;;;;4961012;28;20096;-82
2023/03/18 05:03:50;;;;;;;1.38;1.35;;;8.70;99.90;;;;;;4963065;28;20034;-82
2023/03/18 05:06:26;;;;;;;3.35;3.15;;;8.70;99.90;;;;;;4959385;28;20266;-82
2023/03/18 05:08:51;;;;;;;1.02;1.02;;;8.70;99.90;;;;;;4945765;28;20057;-81
2023/03/18 05:11:18;;;;;;;0.88;0.88;;;8.70;99.90;;;;;;4965788;28;20408;-82
2023/03/18 05:13:44;;;;;;;1.20;1.17;;;8.70;99.90;;;;;;4963190;28;20082;-82
2023/03/18 05:16:10;;;;;;;1.05;1.05;;;8.70;99.90;;;;;;4961973;28;20118;-82
2023/03/18 05:18:37;;;;;;;1.63;1.52;;;8.70;99.90;;;;;;4960953;28;20043;-82
2023/03/18 05:21:04;;;;;;;1.15;1.15;;;8.70;99.90;;;;;;4947621;28;20050;-83
2023/03/18 05:23:30;;;;;;;1.88;1.77;;;8.60;99.90;;;;;;4957821;28;20035;-82
2023/03/18 05:25:56;;;;;;;1.60;1.50;;;8.60;99.90;;;;;;4962381;28;20046;-82
2023/03/18 05:28:22;;;;;;;0.85;0.85;;;8.70;99.90;;;;;;4961481;28;20488;-81
2023/03/18 05:30:47;;;;;;;1.98;1.80;;;8.60;99.90;;;;;;4978784;28;20049;-82
2023/03/18 05:33:13;;;;;;;1.83;1.33;;;8.70;99.90;;;;;;4964307;28;21134;-82
2023/03/18 05:35:39;;;;;;;2.60;1.67;;;8.70;99.90;;;;;;4957013;28;20140;-82
2023/03/18 05:38:06;;;;;;;0.70;0.70;;;8.80;99.90;;;;;;5030151;28;20050;-82
2023/03/18 05:40:32;;;;;;;2.50;1.75;;;8.80;99.90;;;;;;4945877;28;20080;-83
2023/03/18 05:42:59;;;;;;;;;;;8.80;99.90;;;;;;4963591;28;20043;-83
2023/03/18 05:45:25;;;;;;;;;;;8.90;99.90;;;;;;4963198;28;19968;-82
2023/03/18 05:47:51;;;;;;;2.15;2.05;;;8.90;99.90;;;;;;4946150;28;19926;-82
2023/03/18 05:50:38;;;;;;;3.65;3.35;;;8.90;99.90;;;;;;4948414;28;20050;-81
2023/03/18 05:53:05;;;;;;;1.15;1.05;;;9.00;99.90;;;;;;4963813;28;20115;-82
2023/03/18 05:55:32;;;;;;;1.92;1.83;;;9.00;99.90;;;;;;4960055;28;20043;-81
2023/03/18 05:57:59;;;;;;;0.45;0.45;;;9.00;99.90;;;;;;4951232;28;20155;-82
2023/03/18 06:00:27;;;;;;;1.60;1.50;;;9.00;99.90;;;;;;4940755;28;20047;-82
2023/03/18 06:02:53;;;;;;;0.70;0.70;;;9.00;99.90;;;;;;4957622;28;20069;-82
2023/03/18 06:05:20;;;;;;;0.63;0.63;;;9.10;99.90;;;;;;4951427;28;20093;-82
2023/03/18 06:07:47;;;;;;;1.95;1.85;;;9.10;99.90;;;;;;4960719;28;20051;-82
2023/03/18 06:10:13;;;;;;;1.92;1.83;;;9.10;99.90;;;;;;4960828;28;20116;-82
2023/03/18 06:12:40;;;;;;;1.17;1.15;;;9.20;99.90;;;;;;4960673;28;20061;-82
2023/03/18 06:15:07;;;;;;;2.45;2.25;;;9.10;99.90;;;;;;4959401;28;20056;-82
2023/03/18 06:17:33;;;;;;;1.27;1.20;;;9.20;99.90;;;;;;4960909;28;20122;-81
2023/03/18 06:19:59;;;;;;;2.05;1.95;;;9.20;99.90;;;;;;4961263;28;20061;-81
2023/03/18 06:22:26;;;;;;;3.22;2.85;;;9.20;99.90;;;;;;4970107;28;20050;-81
2023/03/18 06:24:52;;;;;;;2.15;2.05;;;9.10;99.90;;;;;;4964278;28;20043;-81
2023/03/18 06:27:18;;;;;;;4.43;3.35;;;9.10;99.90;;;;;;4963202;28;20031;-80
2023/03/18 06:29:44;;;;;;;1.73;1.63;;;9.10;99.90;;;;;;4959321;28;20063;-81
2023/03/18 06:32:10;;;;;;;3.42;3.20;;;9.20;99.90;;;;;;4956274;28;20063;-82
2023/03/18 06:34:36;;;;;;;2.28;2.05;;;9.20;99.90;;;;;;4971361;28;20084;-81
2023/03/18 06:37:02;;;;;;;1.45;1.25;;;9.20;99.90;;;;;;4967596;28;20050;-82
2023/03/18 06:39:28;;;;;;;1.50;1.13;;;9.20;99.90;;;;;;4963955;28;20034;-82
2023/03/18 06:41:54;;;;;;;1.33;1.30;;;9.30;99.90;;;;;;4939170;28;20046;-83
2023/03/18 06:44:21;;;;;;;2.45;2.25;;;9.30;99.90;;;;;;5041491;28;20043;-82
2023/03/18 06:46:47;;;;;;;1.10;1.10;;;9.30;99.90;;;;;;4972200;28;20066;-81
2023/03/18 06:49:13;;;;;;;1.30;0.65;;;9.40;99.90;;;;;;4973346;28;20050;-81
2023/03/18 06:51:40;;;;;;;0.73;0.73;;;9.40;99.90;;;;;;4958928;28;20051;-82
2023/03/18 06:54:06;;;;;;;2.03;0.90;;;9.40;99.90;;;;;;4973387;28;20049;-82
2023/03/18 06:56:36;;;;;;;0.60;0.60;;;9.40;99.90;;;;;;4968076;28;20047;-82
2023/03/18 06:59:02;;;;;;;3.67;2.35;;;9.50;99.90;;;;;;4971883;28;20541;-81
2023/03/18 07:01:29;;;;;;;;;;;9.50;99.90;;;;;;4977181;28;20082;-82
2023/03/18 07:03:55;;;;;;;1.17;0.90;;;9.60;99.90;;;;;;4963185;28;19918;-83
2023/03/18 07:06:21;;;;;;;1.42;1.33;;;9.60;99.90;;;;;;4949448;28;20049;-84
2023/03/18 07:08:47;;;;;;;2.80;1.60;;;9.60;99.90;;;;;;4959146;28;20473;-84
2023/03/18 07:11:12;;;;;;;1.73;1.65;;;9.70;99.90;;;;;;4980337;28;20062;-83
2023/03/18 07:13:38;;;;;;;2.13;1.58;;;9.80;99.90;;;;;;5030888;28;20560;-84
2023/03/18 07:16:04;;;;;;;2.88;2.67;;;9.80;99.90;;;;;;4951774;28;20560;-82
2023/03/18 07:18:30;;;;;;;1.65;1.55;;;9.90;99.90;;;;;;4967562;28;20035;-84
2023/03/18 07:20:55;;;;;;;0.88;0.75;;;9.90;99.90;;;;;;4968965;28;20066;-83
2023/03/18 07:23:21;;;;;;;1.67;1.58;;;10.00;99.90;;;;;;4949866;28;20074;-83
2023/03/18 07:25:47;;;;;;;2.80;2.60;;;10.20;99.90;;;;;;5037622;28;20042;-82
2023/03/18 07:28:13;;;;;;;1.63;1.52;;;10.20;99.90;;;;;;4949198;28;20043;-84
2023/03/18 07:30:38;;;;;;;1.05;0.98;;;10.30;99.90;;;;;;4964343;28;20046;-83
2023/03/18 07:33:04;;;;;;;2.63;1.40;;;10.30;99.90;;;;;;4948315;28;20786;-81
2023/03/18 07:35:30;;;;;;;1.23;1.17;;;10.30;99.90;;;;;;4962726;28;20111;-82
2023/03/18 07:37:56;;;;;;;2.33;2.13;;;10.30;99.90;;;;;;4959872;28;20050;-82
2023/03/18 07:40:22;;;;;;;2.85;1.48;;;10.40;99.90;;;;;;4966082;28;20039;-82
2023/03/18 07:42:50;;;;;;;2.45;2.28;;;10.50;99.90;;;;;;4965209;28;20373;-82
2023/03/18 07:45:17;;;;;;;3.20;2.95;;;10.60;99.90;;;;;;4949818;28;20043;-83
2023/03/18 07:47:43;;;;;;;31.05;2.90;;;10.60;99.90;;;;;;4964513;28;20043;-83
2023/03/18 07:50:09;;;;;;;1.90;1.67;;;10.70;99.90;;;;;;4966644;28;20327;-82
2023/03/18 07:52:36;;;;;;;1.60;1.38;;;10.70;99.90;;;;;;4951568;28;20050;-83
2023/03/18 07:55:03;;;;;;;5.28;3.35;;;10.80;99.90;;;;;;4964368;28;20160;-83
2023/03/18 07:57:28;;;;;;;2.85;2.65;;;10.80;99.90;;;;;;4960881;28;20048;-82
2023/03/18 07:59:55;;;;;;;1.58;1.48;;;10.90;99.90;;;;;;4964488;28;20039;-82
2023/03/18 08:02:20;;;;;;;;;;;11.00;99.90;;;;;;4946244;28;20129;-81
2023/03/18 08:04:46;;;;;;;1.33;0.85;;;11.00;99.90;;;;;;4962862;28;19934;-80
2023/03/18 08:07:12;;;;;;;2.13;1.55;;;11.00;99.90;;;;;;4962245;28;20039;-81
2023/03/18 08:09:38;;;;;;;;;;;11.10;99.90;;;;;;4959797;28;20059;-81
2023/03/18 08:12:04;;;;;;;2.35;2.15;;;11.10;99.90;;;;;;4959511;28;20394;-82
2023/03/18 08:14:30;;;;;;;2.00;1.90;;;11.20;99.90;;;;;;4961122;28;20054;-82
2023/03/18 08:16:56;;;;;;;1.40;1.25;;;11.20;99.90;;;;;;4950036;28;20047;-83
2023/03/18 08:19:21;;;;;;;1.60;1.50;;;11.20;99.90;;;;;;4961904;28;20046;-82
2023/03/18 08:21:47;;;;;;;2.65;2.15;;;11.30;99.90;;;;;;4958669;28;20122;-82
2023/03/18 08:24:13;;;;;;;;;;;11.30;99.90;;;;;;4946180;28;20396;-80
2023/03/18 08:26:39;;;;;;;1.25;1.15;;;11.30;99.90;;;;;;4964024;28;19933;-80
2023/03/18 08:29:05;;;;;;;3.78;2.45;;;11.40;99.90;;;;;;4963709;28;20050;-81
2023/03/18 08:31:30;;;;;;;1.65;1.55;;;11.40;99.90;;;;;;4961616;28;20081;-81
2023/03/18 08:33:58;;;;;;;1.92;1.73;;;11.50;99.90;;;;;;4963777;28;20424;-81
2023/03/18 08:36:24;;;;;;;2.72;1.25;;;11.60;99.90;;;;;;4964848;28;20042;-80
2023/03/18 08:38:50;;;;;;;2.25;1.77;;;11.60;99.90;;;;;;4957866;28;20054;-82
2023/03/18 08:41:15;;;;;;;1.95;1.80;;;11.70;99.90;;;;;;4971663;28;20035;-82
2023/03/18 08:43:42;;;;;;;10.65;1.33;;;11.70;99.90;;;;;;4963302;28;20488;-81
2023/03/18 08:46:07;;;;;;;;;;;11.70;99.90;;;;;;4949731;28;20051;-82
2023/03/18 08:48:34;;;;;;;2.85;2.42;;;11.70;99.90;;;;;;4947085;28;19926;-82
2023/03/18 08:51:03;;;;;;;4.68;3.78;;;11.80;99.90;;;;;;4965557;28;20059;-82
2023/03/18 08:53:29;;;;;;;1.27;1.17;;;11.80;99.90;;;;;;4962616;28;20057;-83
2023/03/18 08:55:55;;;;;;;1.90;1.80;;;11.90;99.90;;;;;;4961240;28;20051;-80
2023/03/18 08:58:21;;;;;;;1.08;1.05;;;11.90;99.90;;;;;;4965849;28;20058;-82
2023/03/18 09:00:46;;;;;;;0.98;0.90;;;11.90;99.90;;;;;;4963157;28;20122;-80
2023/03/18 09:03:12;;;;;;;1.40;1.33;;;12.00;99.90;;;;;;4958172;28;20169;-81
2023/03/18 09:05:39;;;;;;;1.52;1.42;;;12.00;99.90;;;;;;4961105;28;20399;-81
2023/03/18 09:08:05;;;;;;;1.52;1.38;;;12.00;99.90;;;;;;4928361;28;20122;-84
2023/03/18 09:10:32;;;;;;;4.10;1.95;;;12.00;99.90;;;;;;4931411;28;20055;-82
2023/03/18 09:12:59;;;;;;;2.97;2.78;;;11.90;99.90;;;;;;4951867;28;20404;-82
2023/03/18 09:15:26;;;;;;;2.20;2.10;;;11.90;99.90;;;;;;4968680;28;20070;-83
2023/03/18 09:17:52;;;;;;;1.00;1.00;;;11.80;99.90;;;;;;4965135;28;20121;-82
2023/03/18 09:20:18;;;;;;;1.52;1.42;;;11.80;99.90;;;;;;4968760;28;20125;-82
2023/03/18 09:22:45;;;;;;;3.03;2.47;;;11.80;99.90;;;;;;4965900;28;20482;-81
2023/03/18 09:25:12;;;;;;;1.35;1.25;;;11.90;99.90;;;;;;4947152;28;20046;-82
2023/03/18 09:27:37;;;;;;;5.53;2.78;;;11.90;99.90;;;;;;4963700;28;20054;-82
2023/03/18 09:30:04;;;;;;;1.52;1.42;;;12.00;99.90;;;;;;4964714;28;20045;-83
2023/03/18 09:32:30;;;;;;;2.42;2.22;;;12.10;99.90;;;;;;4968791;28;20050;-83
2023/03/18 09:34:55;;;;;;;2.25;2.15;;;12.20;99.90;;;;;;4971582;28;20193;-82
2023/03/18 09:37:22;;;;;;;3.40;1.83;;;12.30;99.90;;;;;;4963110;28;20047;-82
2023/03/18 09:39:47;;;;;;;2.08;1.45;;;12.50;99.90;;;;;;4965394;28;20062;-80
2023/03/18 09:42:50;;;;;;;1.85;1.67;;;12.60;99.90;;;;;;4963822;28;20057;-82
2023/03/18 09:45:34;;;;;;;3.30;2.97;;;12.60;99.90;;;;;;4962341;28;20861;-83
2023/03/18 09:47:59;;;;;;;3.42;3.22;;;12.60;99.90;;;;;;4960089;28;20043;-82
2023/03/18 09:50:56;;;;;;;2.35;1.65;;;12.70;99.90;;;;;;4966158;28;20058;-84
2023/03/18 09:53:54;;;;;;;2.60;2.40;;;12.80;99.90;;;;;;4964004;28;20377;-82
2023/03/18 09:56:28;;;;;;;3.88;1.45;;;12.80;99.90;;;;;;4920825;28;20055;-84
2023/03/18 09:59:16;;;;;;;1.92;1.38;;;12.90;99.90;;;;;;4963229;28;20054;-84
2023/03/18 10:01:45;;;;;;;2.72;2.45;;;13.10;99.90;;;;;;4948097;28;20181;-82
2023/03/18 10:04:17;;;;;;;2.35;1.67;;;13.20;99.90;;;;;;4965916;28;20092;-81
2023/03/18 10:06:43;;;;;;;3.35;3.05;;;13.40;99.90;;;;;;4950641;28;20113;-83
2023/03/18 10:09:41;;;;;;;1.45;1.35;;;13.60;99.90;;;;;;4964648;28;20543;-82
2023/03/18 10:12:23;;;;;;;2.85;2.50;;;13.70;99.90;;;;;;4982078;28;20492;-83
2023/03/18 10:15:04;;;;;;;2.97;1.48;;;13.80;99.90;;;;;;4960096;28;20051;-82
2023/03/18 10:17:44;;;;;;;5.50;3.08;;;13.90;99.90;;;;;;4946848;28;20618;-83
2023/03/18 10:20:57;;;;;;;3.13;2.42;;;14.00;99.90;;;;;;4966221;28;20078;-83
2023/03/18 10:23:51;;;;;;;3.33;1.67;;;14.20;99.90;;;;;;4961849;28;20161;-82
2023/03/18 10:26:31;;;;;;;6.00;2.97;;;14.50;99.90;;;;;;4960445;28;20180;-83
2023/03/18 10:29:10;;;;;;;1.40;1.30;;;14.50;99.90;;;;;;4963931;28;20053;-83
2023/03/18 10:31:52;;;;;;;4.22;2.33;;;14.50;99.90;;;;;;4961888;28;20039;-83
2023/03/18 10:34:30;;;;;;;5.75;2.67;;;14.40;99.90;;;;;;4944868;28;20039;-83
2023/03/18 10:37:05;;;;;;;1.13;1.10;;;14.40;99.90;;;;;;4964519;28;20082;-82
2023/03/18 10:39:34;;;;;;;6.38;2.92;;;14.40;99.90;;;;;;4979748;28;20494;-80
2023/03/18 10:42:18;;;;;;;9.27;4.13;;;14.40;99.90;;;;;;4962046;28;20046;-82
2023/03/18 10:44:45;;;;;;;2.20;2.03;;;14.50;99.90;;;;;;4958293;28;20051;-82
2023/03/18 10:47:26;;;;;;;4.32;2.28;;;14.60;99.90;;;;;;4961043;28;20054;-82
2023/03/18 10:50:24;;;;;;;2.13;1.98;;;14.80;99.90;;;;;;4971637;28;20077;-82
2023/03/18 10:53:22;;;;;;;5.75;1.60;;;14.80;99.90;;;;;;4980705;28;20043;-82
2023/03/18 10:56:15;;;;;;;1.33;1.23;;;14.90;99.90;;;;;;4959080;28;20061;-82
2023/03/18 10:58:41;;;;;;;1.30;1.02;;;15.00;99.90;;;;;;4945251;28;20104;-81
2023/03/18 11:01:11;;;;;;;;;;;15.20;99.90;;;;;;4963219;28;20043;-82
2023/03/18 11:03:42;;;;;;;2.25;1.98;;;15.30;99.90;;;;;;4945758;28;19922;-83
2023/03/18 11:06:18;;;;;;;1.50;1.40;;;15.50;99.90;;;;;;4968118;28;20051;-83
2023/03/18 11:08:47;;;;;;;2.22;2.00;;;15.70;99.90;;;;;;4968656;28;20038;-83
2023/03/18 11:11:32;;;;;;;1.65;1.52;;;15.80;99.90;;;;;;4966324;28;20055;-81
2023/03/18 11:14:00;;;;;;;1.33;1.23;;;15.60;99.90;;;;;;4966521;28;20047;-82
2023/03/18 11:16:44;;;;;;;3.88;1.95;;;15.40;99.90;;;;;;4965845;28;20121;-83
2023/03/18 11:19:49;;;;;;;2.22;1.63;;;15.20;99.90;;;;;;4964457;28;20046;-82
2023/03/18 11:22:21;;;;;;;1.38;1.27;;;15.10;99.90;;;;;;4970970;28;20423;-82
2023/03/18 11:25:00;;;;;;;2.45;2.25;;;15.30;99.90;;;;;;4968791;28;20039;-83
2023/03/18 11:27:32;;;;;;;1.48;1.33;;;15.40;99.90;;;;;;4966055;28;20387;-83
2023/03/18 11:30:04;;;;;;;2.83;2.67;;;15.50;99.90;;;;;;4973677;28;20049;-83
2023/03/18 11:32:35;;;;;;;1.05;0.77;;;15.50;99.90;;;;;;4962813;28;20050;-82
2023/03/18 11:35:04;;;;;;;2.25;2.03;;;15.50;99.90;;;;;;4966355;28;20523;-82
2023/03/18 11:37:36;;;;;;;0.85;0.85;;;15.70;99.90;;;;;;4950073;28;20079;-83
2023/03/18 11:40:25;;;;;;;1.05;0.90;;;15.90;99.90;;;;;;4964169;28;20045;-81
2023/03/18 11:43:01;;;;;;;2.28;2.08;;;16.10;99.90;;;;;;4962298;28;20058;-82
2023/03/18 11:45:46;;;;;;;;;;;16.00;99.90;;;;;;4966563;28;20043;-82
2023/03/18 11:48:32;;;;;;;3.75;1.45;;;15.80;99.90;;;;;;4966627;28;19929;-82
2023/03/18 11:51:32;;;;;;;0.93;0.93;;;15.80;99.90;;;;;;4959159;28;20122;-83
2023/03/18 11:54:22;;;;;;;1.90;1.80;;;15.60;99.90;;;;;;4959851;28;20492;-82
2023/03/18 11:56:56;;;;;;;2.38;1.38;;;15.50;99.90;;;;;;4949137;28;20043;-83
2023/03/18 11:59:21;;;;;;;1.67;1.48;;;15.40;99.90;;;;;;4964214;28;20411;-83
2023/03/18 12:01:56;;;;;;;2.50;2.25;;;15.40;99.90;;;;;;4960929;28;20196;-82
2023/03/18 12:04:34;;;;;;;1.05;0.95;;;15.50;99.90;;;;;;4967471;28;20046;-83
2023/03/18 12:07:11;;;;;;;1.27;1.17;;;15.70;99.90;;;;;;4965000;28;20085;-82
2023/03/18 12:09:52;;;;;;;3.53;1.67;;;15.70;99.90;;;;;;4963249;28;20149;-83
2023/03/18 12:12:33;;;;;;;0.75;0.70;;;15.80;99.90;;;;;;4962736;28;20495;-82
2023/03/18 12:15:11;;;;;;;0.57;0.57;;;15.90;99.90;;;;;;4968692;28;20446;-82
2023/03/18 12:18:06;;;;;;;2.50;1.90;;;16.00;99.90;;;;;;4971070;28;20063;-82
2023/03/18 12:20:52;;;;;;;1.13;1.02;;;16.30;99.90;;;;;;4968599;28;20059;-83
2023/03/18 12:23:47;;;;;;;2.65;2.17;;;16.60;99.90;;;;;;4960191;28;20122;-82
2023/03/18 12:26:48;;;;;;;1.38;1.23;;;16.80;99.90;;;;;;4960878;28;20043;-83
2023/03/18 12:29:17;;;;;;;6.03;1.75;;;16.90;99.90;;;;;;4961739;28;20054;-83
2023/03/18 12:31:45;;;;;;;3.42;1.40;;;17.00;99.90;;;;;;4948344;28;20496;-82
2023/03/18 12:34:58;;;;;;;0.88;0.88;;;16.90;99.90;;;;;;4972548;28;20042;-81
2023/03/18 12:38:08;;;;;;;1.25;0.95;;;17.00;99.90;;;;;;4964712;28;20042;-82
2023/03/18 12:41:04;;;;;;;2.20;1.67;;;17.20;99.90;;;;;;4955009;28;20047;-84
2023/03/18 12:43:59;;;;;;;1.23;1.13;;;17.40;99.90;;;;;;4962647;28;20047;-83
2023/03/18 12:46:33;;;;;;;2.60;1.20;;;17.30;99.90;;;;;;4965596;28;20085;-83
2023/03/18 12:49:13;;;;;;;3.67;1.10;;;17.10;99.90;;;;;;4962592;28;20039;-83
2023/03/18 12:51:55;;;;;;;4.45;1.58;;;17.00;99.90;;;;;;4961731;28;20054;-83
2023/03/18 12:54:25;;;;;;;0.95;0.93;;;17.00;99.90;;;;;;4958836;28;20086;-82
2023/03/18 12:56:59;;;;;;;2.42;1.55;;;16.90;99.90;;;;;;4962488;28;20055;-84
2023/03/18 12:59:40;;;;;;;1.75;1.65;;;16.70;99.90;;;;;;4972871;28;20073;-82
2023/03/18 13:02:21;;;;;;;2.03;1.42;;;16.60;99.90;;;;;;4965246;28;20614;-82
2023/03/18 13:04:57;;;;;;;2.05;1.70;;;16.80;99.90;;;;;;4958334;28;20263;-83
2023/03/18 13:08:16;;;;;;;2.28;1.02;;;17.10;99.90;;;;;;4947595;28;20100;-83
2023/03/18 13:10:48;;;;;;;0.57;0.52;;;17.40;99.90;;;;;;4900466;28;20545;-82
2023/03/18 13:13:15;;;;;;;1.58;1.48;;;17.70;99.90;;;;;;4956336;28;20062;-82
2023/03/18 13:15:50;;;;;;;0.55;0.55;;;18.00;99.90;;;;;;4965332;28;20050;-82